Time;durP1;ratioP1;P1;durP2;ratioP2;P2;SDS_P1;SDS_P2;PMS_P1;PMS_P2;Temp;Humidity;BMP_temperature;BMP_pressure;BME280_temperature;BME280_humidity;BME280_pressure;Samples;Min_cycle;Max_cycle;Signal;HPM_P1;HPM_P2
2024/01/01 00:00:50;;;;;;;13.53;11.97;;;;;;;7.08;100.00;99440.59;5055727;28;20567;-78
2024/01/01 00:03:16;;;;;;;14.00;12.60;;;;;;;7.06;100.00;99439.75;5053928;28;20197;-77
2024/01/01 00:05:41;;;;;;;12.20;10.90;;;;;;;7.12;100.00;99455.16;5056688;28;20220;-78
2024/01/01 00:08:07;;;;;;;13.93;12.53;;;;;;;7.19;100.00;99443.91;5050905;28;20181;-77
2024/01/01 00:10:32;;;;;;;13.87;12.47;;;;;;;7.20;100.00;99452.50;5049248;28;20562;-77
2024/01/01 00:12:57;;;;;;;15.27;13.67;;;;;;;7.22;100.00;99455.94;5056411;28;20579;-78
2024/01/01 00:15:23;;;;;;;14.00;11.40;;;;;;;7.15;100.00;99457.69;5051715;28;20199;-78
2024/01/01 00:17:48;;;;;;;13.70;12.30;;;;;;;7.21;100.00;99457.63;5053558;28;20214;-78
2024/01/01 00:20:13;;;;;;;12.93;11.47;;;;;;;7.30;100.00;99460.16;5054550;28;20283;-76
2024/01/01 00:22:38;;;;;;;12.83;11.47;;;;;;;7.28;100.00;99471.28;5050276;28;20287;-78
2024/01/01 00:25:04;;;;;;;12.63;11.20;;;;;;;7.35;100.00;99464.38;5058911;28;20186;-78
2024/01/01 00:27:33;;;;;;;11.33;10.23;;;;;;;7.26;100.00;99463.59;5050754;28;20189;-78
2024/01/01 00:29:58;;;;;;;14.17;12.30;;;;;;;7.36;100.00;99468.66;5052699;28;20256;-77
2024/01/01 00:32:24;;;;;;;13.93;12.53;;;;;;;7.24;100.00;99467.06;5056507;28;20297;-78
2024/01/01 00:34:49;;;;;;;16.20;12.67;;;;;;;7.32;100.00;99463.56;5059861;28;20193;-78
2024/01/01 00:37:14;;;;;;;15.57;13.97;;;;;;;7.29;100.00;99463.59;5053879;28;20210;-78
2024/01/01 00:39:40;;;;;;;16.13;14.40;;;;;;;7.28;100.00;99456.72;5051443;28;20189;-78
2024/01/01 00:42:05;;;;;;;15.47;13.30;;;;;;;7.27;100.00;99457.59;5059425;28;20280;-76
2024/01/01 00:44:34;;;;;;;15.10;13.47;;;;;;;7.26;100.00;99463.59;5057702;28;20189;-78
2024/01/01 00:46:59;;;;;;;14.90;12.93;;;;;;;7.22;100.00;99453.34;5047206;28;20668;-78
2024/01/01 00:49:24;;;;;;;14.73;13.23;;;;;;;7.35;100.00;99456.66;5050646;28;20243;-78
2024/01/01 00:51:50;;;;;;;16.20;14.50;;;;;;;7.25;100.00;99459.31;5053575;28;20181;-78
2024/01/01 00:54:15;;;;;;;15.00;13.43;;;;;;;7.20;100.00;99449.94;5055782;28;20236;-78
2024/01/01 00:56:41;;;;;;;13.87;12.23;;;;;;;7.22;100.00;99451.63;5055178;28;20593;-79
2024/01/01 00:59:06;;;;;;;14.63;12.97;;;;;;;7.26;100.00;99453.31;5054063;28;20193;-78
2024/01/01 01:01:32;;;;;;;13.53;12.13;;;;;;;7.24;100.00;99444.75;5053279;28;20218;-78
2024/01/01 01:03:57;;;;;;;13.03;11.63;;;;;;;7.23;100.00;99447.34;5058175;28;20221;-78
2024/01/01 01:06:22;;;;;;;12.17;10.20;;;;;;;7.27;100.00;99456.72;5045374;28;20244;-77
2024/01/01 01:08:48;;;;;;;10.00;8.97;;;;;;;7.27;100.00;99455.00;5052964;28;20218;-78
2024/01/01 01:11:14;;;;;;;10.17;8.33;;;;;;;7.28;100.00;99454.16;5052448;28;20209;-78
2024/01/01 01:13:39;;;;;;;9.43;8.00;;;;;;;7.30;100.00;99461.84;5051167;28;20287;-78
2024/01/01 01:16:04;;;;;;;8.20;7.13;;;;;;;7.25;100.00;99454.19;5050625;28;20230;-77
2024/01/01 01:18:30;;;;;;;8.17;7.30;;;;;;;7.23;100.00;99455.91;5053734;28;20202;-78
2024/01/01 01:20:55;;;;;;;8.83;6.40;;;;;;;7.21;100.00;99454.22;5049038;28;20190;-77
2024/01/01 01:23:20;;;;;;;8.33;6.60;;;;;;;7.21;100.00;99456.78;5047621;28;20280;-77
2024/01/01 01:25:46;;;;;;;6.40;4.90;;;;;;;7.10;100.00;99455.19;5054071;28;20729;-79
2024/01/01 01:28:20;;;;;;;6.93;4.80;;;;;;;7.10;100.00;99442.31;5048011;28;20194;-77
2024/01/01 01:30:46;;;;;;;7.70;4.77;;;;;;;7.12;100.00;99440.53;5048336;28;20930;-77
2024/01/01 01:33:11;;;;;;;5.03;3.80;;;;;;;7.06;100.00;99448.34;5050673;28;20201;-78
2024/01/01 01:35:36;;;;;;;4.60;3.50;;;;;;;7.09;100.00;99438.03;5052705;28;20201;-77
2024/01/01 01:38:02;;;;;;;3.50;3.00;;;;;;;6.99;100.00;99446.66;5052870;28;20210;-77
2024/01/01 01:40:27;;;;;;;4.87;3.00;;;;;;;6.96;100.00;99438.97;5047723;28;20307;-78
2024/01/01 01:42:52;;;;;;;4.33;3.33;;;;;;;6.97;100.00;99444.13;5050716;28;20266;-78
2024/01/01 01:45:18;;;;;;;4.53;3.10;;;;;;;7.09;100.00;99448.31;5054412;28;20243;-77
2024/01/01 01:47:44;;;;;;;3.20;2.27;;;;;;;7.04;100.00;99444.03;5050168;28;20250;-78
2024/01/01 01:50:09;;;;;;;3.03;2.57;;;;;;;6.97;100.00;99449.25;5053034;28;20640;-77
2024/01/01 01:52:35;;;;;;;2.93;2.47;;;;;;;6.92;100.00;99453.56;5049348;28;20297;-78
2024/01/01 01:55:01;;;;;;;4.27;2.57;;;;;;;6.94;100.00;99446.69;5049442;28;20186;-77
2024/01/01 01:57:27;;;;;;;3.57;2.50;;;;;;;6.89;100.00;99463.88;5052566;28;20222;-77
2024/01/01 01:59:53;;;;;;;4.00;2.33;;;;;;;6.79;100.00;99462.25;5056055;28;20196;-78
2024/01/01 02:02:20;;;;;;;3.97;2.13;;;;;;;6.78;100.00;99465.69;5047654;28;20196;-78
2024/01/01 02:04:45;;;;;;;2.80;2.30;;;;;;;6.80;100.00;99457.13;5052028;28;20330;-78
2024/01/01 02:07:11;;;;;;;4.83;2.37;;;;;;;6.76;100.00;99452.84;5049653;28;20188;-77
2024/01/01 02:09:38;;;;;;;5.37;2.70;;;;;;;6.75;100.00;99465.69;5048087;28;20204;-76
2024/01/01 02:12:04;;;;;;;3.60;2.30;;;;;;;6.84;100.00;99457.94;5053585;28;20195;-78
2024/01/01 02:14:29;;;;;;;3.57;2.30;;;;;;;6.77;100.00;99454.56;5055850;28;20195;-77
2024/01/01 02:16:55;;;;;;;3.57;2.90;;;;;;;6.77;100.00;99451.97;5054490;28;20204;-78
2024/01/01 02:19:26;;;;;;;3.50;2.53;;;;;;;6.74;100.00;99458.84;5053227;28;20405;-76
2024/01/01 02:21:53;;;;;;;4.20;2.30;;;;;;;6.72;100.00;99456.28;5058661;28;20298;-78
2024/01/01 02:24:18;;;;;;;4.20;2.40;;;;;;;6.67;100.00;99465.75;5053975;28;20217;-78
2024/01/01 02:26:45;;;;;;;4.27;2.53;;;;;;;6.68;100.00;99464.88;5064054;28;20330;-78
2024/01/01 02:29:11;;;;;;;3.23;2.67;;;;;;;6.75;100.00;99464.00;5053991;28;20193;-79
2024/01/01 02:31:37;;;;;;;3.47;2.40;;;;;;;6.82;100.00;99469.94;5055145;28;20207;-77
2024/01/01 02:34:02;;;;;;;4.43;2.87;;;;;;;6.82;100.00;99468.22;5055137;28;20717;-79
2024/01/01 02:36:28;;;;;;;4.63;3.00;;;;;;;6.80;100.00;99453.66;5049524;28;20194;-77
2024/01/01 02:38:53;;;;;;;4.70;3.10;;;;;;;6.84;100.00;99461.34;5057339;28;20224;-77
2024/01/01 02:41:19;;;;;;;5.77;3.10;;;;;;;6.75;100.00;99464.00;5054420;28;20704;-77
2024/01/01 02:43:44;;;;;;;4.93;2.80;;;;;;;6.69;100.00;99464.88;5045297;28;20214;-77
2024/01/01 02:46:09;;;;;;;4.80;2.90;;;;;;;6.67;100.00;99460.59;5050131;28;20219;-78
2024/01/01 02:48:34;;;;;;;5.20;2.57;;;;;;;6.59;100.00;99468.34;5049067;28;20194;-77
2024/01/01 02:51:00;;;;;;;6.53;3.10;;;;;;;6.66;100.00;99466.59;5062427;28;20196;-79
2024/01/01 02:53:25;;;;;;;5.83;3.60;;;;;;;6.73;100.00;99470.03;5065028;28;20231;-78
2024/01/01 02:55:50;;;;;;;4.67;2.90;;;;;;;6.68;100.00;99470.91;5054918;28;20193;-77
2024/01/01 02:58:16;;;;;;;5.93;2.77;;;;;;;6.84;100.00;99478.50;5060475;28;20603;-77
2024/01/01 03:00:41;;;;;;;3.67;2.60;;;;;;;6.83;100.00;99474.22;5050152;28;20214;-78
2024/01/01 03:03:06;;;;;;;6.63;2.73;;;;;;;6.87;100.00;99470.78;5055602;28;20216;-78
2024/01/01 03:05:32;;;;;;;4.23;2.63;;;;;;;6.88;100.00;99476.75;5061470;28;20193;-77
2024/01/01 03:07:57;;;;;;;5.17;2.47;;;;;;;6.85;100.00;99475.91;5053355;28;20185;-77
2024/01/01 03:10:23;;;;;;;6.33;3.37;;;;;;;6.98;100.00;99475.81;5054876;28;20252;-78
2024/01/01 03:12:48;;;;;;;3.70;2.33;;;;;;;7.01;100.00;99479.25;5053114;28;21152;-78
2024/01/01 03:15:13;;;;;;;4.00;2.40;;;;;;;6.99;100.00;99475.84;5057624;28;20189;-77
2024/01/01 03:17:40;;;;;;;4.13;2.20;;;;;;;6.95;100.00;99476.72;5058137;28;20211;-78
2024/01/01 03:20:06;;;;;;;4.97;2.37;;;;;;;6.95;100.00;99470.72;5055062;28;20187;-77
2024/01/01 03:22:31;;;;;;;5.03;2.33;;;;;;;6.94;100.00;99476.72;5054542;28;20221;-79
2024/01/01 03:24:56;;;;;;;4.43;2.40;;;;;;;6.93;100.00;99468.16;5056077;28;20304;-78
2024/01/01 03:27:22;;;;;;;3.97;2.30;;;;;;;6.94;100.00;99481.88;5063378;28;20526;-78
2024/01/01 03:29:47;;;;;;;5.03;2.30;;;;;;;6.95;100.00;99478.44;5055378;28;20267;-77
2024/01/01 03:32:12;;;;;;;4.17;1.80;;;;;;;6.93;100.00;99488.72;5060659;28;20220;-78
2024/01/01 03:34:38;;;;;;;3.60;2.23;;;;;;;6.84;100.00;99483.66;5063993;28;20198;-77
2024/01/01 03:37:04;;;;;;;3.70;1.63;;;;;;;6.75;100.00;99486.25;5059455;28;20229;-77
2024/01/01 03:39:29;;;;;;;3.97;2.30;;;;;;;6.76;100.00;99475.13;5053729;28;20189;-78
2024/01/01 03:41:54;;;;;;;5.17;1.93;;;;;;;6.82;100.00;99486.22;5066203;28;20181;-78
2024/01/01 03:44:20;;;;;;;3.47;2.23;;;;;;;6.85;100.00;99475.91;5060293;28;20295;-77
2024/01/01 03:46:45;;;;;;;5.53;2.00;;;;;;;6.80;100.00;99480.25;5060279;28;20288;-78
2024/01/01 03:49:11;;;;;;;6.30;2.27;;;;;;;6.83;100.00;99472.50;5057885;28;22679;-78
2024/01/01 03:51:36;;;;;;;4.67;1.87;;;;;;;6.79;100.00;99478.56;5056657;28;20193;-78
2024/01/01 03:54:01;;;;;;;3.97;1.33;;;;;;;6.77;100.00;99477.69;5058628;28;20217;-78
2024/01/01 03:56:27;;;;;;;4.03;1.57;;;;;;;6.73;100.00;99483.72;5055207;28;20212;-77
2024/01/01 03:58:55;;;;;;;4.17;1.63;;;;;;;6.68;100.00;99476.03;5062140;28;21058;-78
2024/01/01 04:01:21;;;;;;;3.57;1.73;;;;;;;6.67;100.00;99470.88;5054759;28;20193;-77
2024/01/01 04:03:46;;;;;;;4.43;1.77;;;;;;;6.68;100.00;99468.31;5055992;28;20216;-76
2024/01/01 04:06:12;;;;;;;4.07;1.80;;;;;;;6.64;100.00;99468.34;5051459;28;20187;-77
2024/01/01 04:08:37;;;;;;;3.57;1.57;;;;;;;6.65;100.00;99470.06;5052392;28;21490;-76
2024/01/01 04:11:02;;;;;;;5.90;1.90;;;;;;;6.65;100.00;99470.91;5060007;28;20189;-78
2024/01/01 04:13:28;;;;;;;3.77;1.57;;;;;;;6.69;100.00;99464.03;5055237;28;20210;-76
2024/01/01 04:15:53;;;;;;;4.60;1.60;;;;;;;6.62;100.00;99483.78;5050259;28;20266;-76
2024/01/01 04:18:18;;;;;;;4.03;1.50;;;;;;;6.56;100.00;99471.81;5049584;28;20231;-77
2024/01/01 04:20:43;;;;;;;3.53;1.50;;;;;;;6.60;100.00;99470.06;5053503;28;20196;-78
2024/01/01 04:23:09;;;;;;;4.40;1.80;;;;;;;6.56;100.00;99471.81;5053342;28;20252;-77
2024/01/01 04:25:34;;;;;;;2.57;1.53;;;;;;;6.51;100.00;99476.13;5050304;28;20275;-79
2024/01/01 04:27:59;;;;;;;3.20;1.50;;;;;;;6.52;100.00;99482.13;5059003;28;20191;-78
2024/01/01 04:30:24;;;;;;;3.83;1.30;;;;;;;6.47;100.00;99486.44;5049571;28;20695;-76
2024/01/01 04:32:50;;;;;;;2.30;1.27;;;;;;;6.59;100.00;99490.66;5058669;28;20291;-78
2024/01/01 04:35:16;;;;;;;2.93;1.60;;;;;;;6.65;100.00;99485.50;5056756;28;20191;-78
2024/01/01 04:37:41;;;;;;;4.83;1.50;;;;;;;6.78;100.00;99483.69;5053897;28;20700;-77
2024/01/01 04:40:07;;;;;;;3.67;1.43;;;;;;;6.75;100.00;99487.13;5050036;28;20182;-77
2024/01/01 04:42:32;;;;;;;3.57;1.50;;;;;;;6.78;100.00;99487.13;5051955;28;20219;-78
2024/01/01 04:44:57;;;;;;;4.37;1.73;;;;;;;6.75;100.00;99484.56;5059587;28;20203;-77
2024/01/01 04:47:23;;;;;;;5.70;1.67;;;;;;;6.80;100.00;99489.66;5060182;28;20809;-78
2024/01/01 04:49:48;;;;;;;5.43;1.87;;;;;;;6.78;100.00;99489.69;5057789;28;20197;-78
2024/01/01 04:52:13;;;;;;;3.63;1.30;;;;;;;6.82;100.00;99501.66;5055589;28;20191;-78
2024/01/01 04:54:39;;;;;;;3.37;1.40;;;;;;;6.77;100.00;99489.69;5054655;28;20197;-77
2024/01/01 04:57:04;;;;;;;2.63;1.30;;;;;;;6.78;100.00;99481.97;5062364;28;20225;-77
2024/01/01 04:59:29;;;;;;;4.10;1.20;;;;;;;6.72;100.00;99492.28;5051915;28;20216;-78
2024/01/01 05:01:55;;;;;;;2.43;1.20;;;;;;;6.67;100.00;99507.75;5053265;28;20213;-77
2024/01/01 05:04:20;;;;;;;4.63;1.80;;;;;;;6.75;100.00;99517.13;5052918;28;20251;-77
2024/01/01 05:06:46;;;;;;;5.60;1.80;;;;;;;6.79;100.00;99519.69;5050216;28;20222;-78
2024/01/01 05:09:11;;;;;;;7.80;1.40;;;;;;;6.85;100.00;99506.78;5049481;28;20201;-78
2024/01/01 05:11:40;;;;;;;2.97;1.43;;;;;;;6.76;100.00;99527.41;5060591;28;20188;-77
2024/01/01 05:14:06;;;;;;;3.50;1.40;;;;;;;6.77;100.00;99520.53;5054897;28;20209;-78
2024/01/01 05:16:33;;;;;;;3.37;1.37;;;;;;;6.84;100.00;99530.78;5050802;28;20191;-78
2024/01/01 05:18:58;;;;;;;3.50;1.30;;;;;;;6.95;100.00;99527.31;5057974;28;20189;-77
2024/01/01 05:21:23;;;;;;;4.37;1.53;;;;;;;6.92;100.00;99527.34;5055214;28;20197;-77
2024/01/01 05:23:50;;;;;;;3.00;1.20;;;;;;;6.94;100.00;99529.03;5057151;28;20369;-78
2024/01/01 05:26:15;;;;;;;4.50;1.23;;;;;;;6.91;100.00;99531.59;5049884;28;20280;-77
2024/01/01 05:28:40;;;;;;;3.93;1.37;;;;;;;6.98;100.00;99537.56;5052484;28;20255;-77
2024/01/01 05:31:06;;;;;;;4.87;1.67;;;;;;;6.98;100.00;99535.88;5052514;28;20196;-76
2024/01/01 05:33:31;;;;;;;3.17;1.50;;;;;;;7.00;100.00;99535.84;5052920;28;20218;-77
2024/01/01 05:35:56;;;;;;;3.90;1.03;;;;;;;6.98;100.00;99542.72;5051837;28;20194;-78
2024/01/01 05:38:22;;;;;;;4.17;1.50;;;;;;;6.99;100.00;99529.84;5052416;28;20215;-77
2024/01/01 05:40:47;;;;;;;5.80;1.80;;;;;;;6.97;100.00;99523.00;5052242;28;20201;-77
2024/01/01 05:43:13;;;;;;;4.13;1.40;;;;;;;6.97;100.00;99531.59;5048735;28;20243;-77
2024/01/01 05:45:39;;;;;;;5.23;1.40;;;;;;;6.96;100.00;99534.13;5047822;28;20192;-77
2024/01/01 05:48:04;;;;;;;2.80;1.30;;;;;;;6.95;100.00;99537.59;5051365;28;20231;-75
2024/01/01 05:50:30;;;;;;;5.83;1.70;;;;;;;6.99;100.00;99550.44;5052863;28;20188;-77
2024/01/01 05:52:56;;;;;;;3.80;1.70;;;;;;;6.97;100.00;99549.59;5050976;28;20818;-78
2024/01/01 05:55:21;;;;;;;3.13;1.70;;;;;;;6.97;100.00;99557.31;5052295;28;20194;-77
2024/01/01 05:57:46;;;;;;;3.57;1.50;;;;;;;7.03;100.00;99543.53;5053196;28;20707;-76
2024/01/01 06:00:12;;;;;;;3.57;1.27;;;;;;;7.00;100.00;99554.72;5041857;28;20182;-75
2024/01/01 06:02:38;;;;;;;4.87;1.60;;;;;;;6.95;100.00;99551.31;5044838;28;20855;-77
2024/01/01 06:05:04;;;;;;;3.77;1.30;;;;;;;6.93;100.00;99558.19;5055633;28;20182;-78
2024/01/01 06:07:29;;;;;;;5.50;1.50;;;;;;;6.82;100.00;99557.38;5053670;28;20228;-77
2024/01/01 06:09:54;;;;;;;2.93;1.50;;;;;;;6.68;100.00;99566.03;5044396;28;20721;-78
2024/01/01 06:12:20;;;;;;;3.00;1.50;;;;;;;6.61;100.00;99571.22;5049754;28;20197;-78
2024/01/01 06:14:46;;;;;;;5.50;1.30;;;;;;;6.64;100.00;99571.19;5046459;28;20204;-76
2024/01/01 06:17:11;;;;;;;5.37;1.33;;;;;;;6.55;100.00;99578.06;5060360;28;20232;-79
2024/01/01 06:19:37;;;;;;;4.10;1.67;;;;;;;6.60;100.00;99578.06;5055035;28;20216;-78
2024/01/01 06:22:03;;;;;;;4.77;1.73;;;;;;;6.60;100.00;99572.06;5048286;28;20201;-78
2024/01/01 06:24:28;;;;;;;2.63;1.13;;;;;;;6.53;100.00;99576.38;5051211;28;20206;-77
2024/01/01 06:26:53;;;;;;;5.03;1.40;;;;;;;6.47;100.00;99579.84;5044426;28;20179;-77
2024/01/01 06:29:19;;;;;;;3.40;1.40;;;;;;;6.42;100.00;99578.16;5050000;28;20224;-77
2024/01/01 06:31:44;;;;;;;5.10;1.70;;;;;;;6.44;100.00;99581.53;5055371;28;20275;-77
2024/01/01 06:34:09;;;;;;;4.47;1.60;;;;;;;6.46;100.00;99585.84;5062661;28;20232;-76
2024/01/01 06:36:35;;;;;;;4.10;1.50;;;;;;;6.52;100.00;99592.66;5057257;28;20272;-77
2024/01/01 06:39:00;;;;;;;5.80;1.37;;;;;;;6.51;100.00;99584.06;5050853;28;20191;-77
2024/01/01 06:41:25;;;;;;;5.37;1.30;;;;;;;6.37;100.00;99583.28;5053835;28;20196;-78
2024/01/01 06:43:51;;;;;;;3.90;1.40;;;;;;;6.48;100.00;99585.81;5047235;28;20208;-77
2024/01/01 06:46:16;;;;;;;4.87;1.57;;;;;;;6.39;100.00;99594.41;5053787;28;20730;-77
2024/01/01 06:48:42;;;;;;;3.53;1.20;;;;;;;6.29;100.00;99592.72;5050574;28;20207;-78
2024/01/01 06:51:11;;;;;;;5.77;1.70;;;;;;;6.29;100.00;99603.00;5051906;28;20631;-77
2024/01/01 06:53:36;;;;;;;3.53;1.47;;;;;;;6.22;100.00;99599.59;5048196;28;20295;-77
2024/01/01 06:56:02;;;;;;;2.90;1.30;;;;;;;6.20;100.00;99611.59;5052106;28;20531;-78
2024/01/01 06:58:27;;;;;;;4.50;1.43;;;;;;;6.22;100.00;99617.59;5053944;28;20296;-78
2024/01/01 07:00:53;;;;;;;5.70;1.70;;;;;;;6.29;100.00;99619.28;5048641;28;20192;-78
2024/01/01 07:03:18;;;;;;;5.30;1.87;;;;;;;6.30;100.00;99612.44;5057942;28;20212;-77
2024/01/01 07:05:43;;;;;;;5.10;1.70;;;;;;;6.31;100.00;99622.69;5049438;28;20658;-76
2024/01/01 07:08:08;;;;;;;4.67;1.87;;;;;;;6.39;100.00;99633.84;5048140;28;20181;-78
2024/01/01 07:10:34;;;;;;;3.17;1.63;;;;;;;6.48;100.00;99627.81;5045220;28;20200;-79
2024/01/01 07:12:59;;;;;;;3.50;1.40;;;;;;;6.55;100.00;99636.38;5041992;28;20213;-77
2024/01/01 07:15:24;;;;;;;4.97;1.70;;;;;;;6.52;100.00;99637.22;5048506;28;20496;-77
2024/01/01 07:17:50;;;;;;;5.40;1.70;;;;;;;6.55;100.00;99631.22;5044864;28;21368;-77
2024/01/01 07:20:15;;;;;;;4.13;1.50;;;;;;;6.57;100.00;99650.06;5058360;28;20188;-78
2024/01/01 07:22:40;;;;;;;4.20;1.40;;;;;;;6.62;100.00;99647.47;5051013;28;20203;-78
2024/01/01 07:25:06;;;;;;;2.77;1.10;;;;;;;6.67;100.00;99654.31;5054850;28;20810;-77
2024/01/01 07:27:31;;;;;;;4.70;1.70;;;;;;;6.73;100.00;99658.56;5048739;28;20964;-78
2024/01/01 07:29:56;;;;;;;3.27;1.20;;;;;;;6.75;100.00;99659.44;5057219;28;20195;-77
2024/01/01 07:32:22;;;;;;;5.00;1.67;;;;;;;6.78;100.00;99672.28;5049700;28;20193;-77
2024/01/01 07:34:47;;;;;;;4.63;1.70;;;;;;;6.78;100.00;99672.28;5046767;28;20945;-77
2024/01/01 07:37:12;;;;;;;4.93;1.63;;;;;;;6.84;100.00;99668.84;5048963;28;20214;-78
2024/01/01 07:39:38;;;;;;;4.27;1.30;;;;;;;6.77;100.00;99675.72;5052315;28;20205;-77
2024/01/01 07:42:04;;;;;;;4.83;1.60;;;;;;;6.71;100.00;99666.31;5051757;28;20220;-77
2024/01/01 07:44:30;;;;;;;3.73;1.67;;;;;;;6.73;100.00;99684.28;5057192;28;20227;-78
2024/01/01 07:46:55;;;;;;;3.13;1.47;;;;;;;6.74;100.00;99673.16;5051471;28;20556;-78
2024/01/01 07:49:20;;;;;;;4.63;1.60;;;;;;;6.71;100.00;99666.31;5047259;28;20228;-78
2024/01/01 07:51:46;;;;;;;5.47;1.87;;;;;;;6.71;100.00;99671.47;5046622;28;20217;-77
2024/01/01 07:54:11;;;;;;;6.17;1.67;;;;;;;6.67;100.00;99681.72;5055466;28;22159;-77
2024/01/01 07:56:41;;;;;;;4.27;1.53;;;;;;;6.69;100.00;99680.00;5047032;28;20810;-78
2024/01/01 07:59:06;;;;;;;5.13;1.80;;;;;;;6.72;100.00;99687.72;5051961;28;20637;-76
2024/01/01 08:01:32;;;;;;;4.10;1.50;;;;;;;6.70;100.00;99698.03;5043938;28;20184;-78
2024/01/01 08:03:57;;;;;;;5.40;2.03;;;;;;;6.83;100.00;99695.41;5052033;28;20226;-77
2024/01/01 08:06:22;;;;;;;4.07;1.73;;;;;;;6.88;100.00;99683.41;5052665;28;20783;-77
2024/01/01 08:08:48;;;;;;;4.07;1.63;;;;;;;6.82;100.00;99691.97;5048491;28;20186;-76
2024/01/01 08:11:13;;;;;;;4.43;1.40;;;;;;;6.95;100.00;99684.22;5047665;28;20191;-77
2024/01/01 08:13:38;;;;;;;4.80;1.73;;;;;;;6.96;100.00;99684.22;5051526;28;20210;-76
2024/01/01 08:16:04;;;;;;;2.83;1.20;;;;;;;6.94;100.00;99696.22;5055176;28;20180;-77
2024/01/01 08:18:29;;;;;;;2.53;1.40;;;;;;;7.00;100.00;99683.34;5063878;28;20889;-77
2024/01/01 08:20:55;;;;;;;5.33;1.47;;;;;;;6.98;100.00;99684.19;5057817;28;20183;-77
2024/01/01 08:23:20;;;;;;;5.50;1.60;;;;;;;7.05;100.00;99691.03;5058022;28;20254;-78
2024/01/01 08:25:46;;;;;;;5.87;1.83;;;;;;;7.07;100.00;99696.16;5055539;28;20229;-77
2024/01/01 08:28:11;;;;;;;2.43;1.30;;;;;;;7.20;100.00;99691.84;5049443;28;20186;-76
2024/01/01 08:30:38;;;;;;;3.87;1.27;;;;;;;7.27;100.00;99699.53;5055747;28;20259;-77
2024/01/01 08:33:04;;;;;;;5.83;1.77;;;;;;;7.33;100.00;99693.47;5051065;28;20939;-77
2024/01/01 08:35:30;;;;;;;2.67;1.40;;;;;;;7.40;100.00;99702.91;5051144;28;20203;-77
2024/01/01 08:37:55;;;;;;;3.77;1.50;;;;;;;7.46;100.00;99704.59;5051252;28;20304;-77
2024/01/01 08:40:20;;;;;;;3.43;1.37;;;;;;;7.49;100.00;99704.53;5050497;28;20218;-75
2024/01/01 08:42:47;;;;;;;3.43;1.50;;;;;;;7.56;100.00;99707.97;5033297;28;20317;-76
2024/01/01 08:45:12;;;;;;;1.93;1.00;;;;;;;7.55;100.00;99719.13;5052548;28;20179;-78
2024/01/01 08:47:40;;;;;;;5.50;1.33;;;;;;;7.61;100.00;99722.53;5058111;28;20243;-75
2024/01/01 08:50:06;;;;;;;2.17;1.20;;;;;;;7.64;100.00;99721.63;5052148;28;20276;-76
2024/01/01 08:52:31;;;;;;;2.37;0.93;;;;;;;7.65;100.00;99723.34;5051950;28;20297;-76
2024/01/01 08:54:56;;;;;;;4.47;1.33;;;;;;;7.70;100.00;99719.03;5048030;28;20288;-76
2024/01/01 08:57:22;;;;;;;2.87;0.97;;;;;;;7.75;100.00;99725.00;5053595;28;20777;-76
2024/01/01 08:59:47;;;;;;;2.63;0.97;;;;;;;7.80;100.00;99737.00;5052145;28;20187;-76
2024/01/01 09:02:13;;;;;;;3.57;0.90;;;;;;;7.85;100.00;99733.53;5048436;28;20819;-76
2024/01/01 09:04:38;;;;;;;2.47;1.07;;;;;;;7.87;100.00;99743.81;5049308;28;20670;-76
2024/01/01 09:07:04;;;;;;;1.67;0.73;;;;;;;7.93;100.00;99741.19;5052900;28;20185;-77
2024/01/01 09:09:30;;;;;;;2.33;1.07;;;;;;;7.96;100.00;99742.88;5048944;28;20630;-76
2024/01/01 09:11:56;;;;;;;3.60;1.50;;;;;;;7.97;100.00;99744.59;5046512;28;20210;-77
2024/01/01 09:14:22;;;;;;;2.13;0.90;;;;;;;7.93;100.00;99744.66;5059435;28;20197;-77
2024/01/01 09:16:47;;;;;;;2.67;1.40;;;;;;;7.94;100.00;99754.06;5054742;28;20762;-78
2024/01/01 09:19:16;;;;;;;3.27;1.20;;;;;;;7.96;100.00;99756.66;5052358;28;21806;-75
2024/01/01 09:21:42;;;;;;;2.23;1.23;;;;;;;7.97;100.00;99757.47;5050571;28;20557;-77
2024/01/01 09:24:09;;;;;;;3.40;1.10;;;;;;;7.97;100.00;99760.94;5050645;28;20203;-78
2024/01/01 09:26:35;;;;;;;5.00;1.33;;;;;;;8.00;100.00;99752.31;5048576;28;20187;-77
2024/01/01 09:29:00;;;;;;;3.87;1.33;;;;;;;7.98;100.00;99752.34;5054288;28;20796;-77
2024/01/01 09:31:26;;;;;;;3.03;1.10;;;;;;;7.99;100.00;99750.59;5046394;28;20189;-78
2024/01/01 09:33:51;;;;;;;2.77;1.30;;;;;;;7.93;100.00;99754.06;5047283;28;20202;-77
2024/01/01 09:36:17;;;;;;;3.30;1.13;;;;;;;7.91;100.00;99746.38;5045059;28;20273;-77
2024/01/01 09:38:45;;;;;;;3.40;1.57;;;;;;;7.93;100.00;99751.50;5048742;28;20231;-77
2024/01/01 09:41:11;;;;;;;6.47;1.80;;;;;;;7.98;100.00;99754.91;5055624;28;20224;-77
2024/01/01 09:43:37;;;;;;;2.07;1.07;;;;;;;7.99;100.00;99754.06;5051390;28;20226;-76
2024/01/01 09:46:03;;;;;;;6.87;1.70;;;;;;;7.98;100.00;99749.75;5047965;28;20189;-78
2024/01/01 09:48:28;;;;;;;6.37;1.50;;;;;;;8.04;100.00;99757.44;5051499;28;20237;-76
2024/01/01 09:50:54;;;;;;;3.33;1.60;;;;;;;8.17;100.00;99765.94;5052163;28;20183;-77
2024/01/01 09:53:19;;;;;;;3.83;1.63;;;;;;;8.33;100.00;99758.94;5051062;28;20240;-77
2024/01/01 09:55:54;;;;;;;4.90;1.83;;;;;;;8.44;100.00;99758.00;5052767;28;20189;-78
2024/01/01 09:58:23;;;;;;;6.20;1.83;;;;;;;8.57;100.00;99758.75;5048645;28;20213;-76
2024/01/01 10:00:49;;;;;;;3.30;1.53;;;;;;;8.69;100.00;99762.09;5047589;28;21162;-77
2024/01/01 10:03:14;;;;;;;3.77;1.60;;;;;;;8.76;100.00;99762.03;5048857;28;20273;-78
2024/01/01 10:05:40;;;;;;;3.90;1.40;;;;;;;8.82;100.00;99751.63;5043706;28;20188;-77
2024/01/01 10:08:09;;;;;;;4.57;1.67;;;;;;;8.89;100.00;99748.13;5055670;28;20178;-77
2024/01/01 10:10:36;;;;;;;4.47;1.83;;;;;;;8.92;100.00;99758.44;5068721;28;20186;-77
2024/01/01 10:13:07;;;;;;;3.33;1.80;;;;;;;8.92;100.00;99763.59;5053884;28;20205;-76
2024/01/01 10:15:33;;;;;;;5.70;2.03;;;;;;;8.95;100.00;99798.81;5049205;28;20193;-78
2024/01/01 10:18:14;;;;;;;5.20;2.30;;;;;;;8.81;100.00;99768.00;5048314;28;20199;-77
2024/01/01 10:20:42;;;;;;;6.73;2.10;;;;;;;8.77;100.00;99768.91;5055139;28;20246;-78
2024/01/01 10:23:20;;;;;;;4.40;2.10;;;;;;;8.83;100.00;99766.25;5053539;28;20198;-77
2024/01/01 10:25:45;;;;;;;5.17;1.90;;;;;;;8.78;100.00;99758.56;5059510;28;20190;-77
2024/01/01 10:28:15;;;;;;;6.87;2.20;;;;;;;8.76;100.00;99762.88;5054962;28;20685;-77
2024/01/01 10:30:43;;;;;;;8.67;4.37;;;;;;;8.78;100.00;99758.56;5058388;28;20270;-76
2024/01/01 10:33:10;;;;;;;6.67;3.30;;;;;;;8.77;100.00;99753.44;5053968;28;20207;-76
2024/01/01 10:35:36;;;;;;;6.30;2.77;;;;;;;8.77;100.00;99748.28;5054064;28;20179;-77
2024/01/01 10:38:02;;;;;;;8.60;4.87;;;;;;;8.85;100.00;99752.44;5058555;28;20322;-77
2024/01/01 10:40:28;;;;;;;11.00;8.03;;;;;;;8.88;100.00;99754.16;5052484;28;20228;-77
2024/01/01 10:42:54;;;;;;;9.90;6.87;;;;;;;8.95;100.00;99755.78;5056284;28;20279;-77
2024/01/01 10:45:19;;;;;;;8.30;5.67;;;;;;;9.01;100.00;99752.28;5054667;28;20189;-77
2024/01/01 10:47:48;;;;;;;5.67;2.03;;;;;;;8.98;100.00;99747.19;5053921;28;20278;-77
2024/01/01 10:50:22;;;;;;;6.57;2.70;;;;;;;8.92;100.00;99750.69;5052973;28;20187;-77
2024/01/01 10:53:05;;;;;;;6.10;3.53;;;;;;;8.88;100.00;99756.75;5059270;28;22094;-78
2024/01/01 10:55:52;;;;;;;8.70;4.83;;;;;;;8.92;100.00;99758.44;5057907;28;20786;-77
2024/01/01 10:58:24;;;;;;;10.57;5.27;;;;;;;8.92;100.00;99761.00;5055013;28;20293;-77
2024/01/01 11:00:51;;;;;;;10.27;5.43;;;;;;;8.95;100.00;99773.84;5048133;28;20293;-78
2024/01/01 11:03:16;;;;;;;7.50;4.73;;;;;;;8.88;100.00;99784.25;5051294;28;20210;-77
2024/01/01 11:05:42;;;;;;;11.00;9.13;;;;;;;8.91;100.00;99785.09;5045373;28;20236;-77
2024/01/01 11:08:08;;;;;;;11.13;8.27;;;;;;;8.96;100.00;99779.91;5051371;28;20482;-79
2024/01/01 11:10:36;;;;;;;10.17;7.40;;;;;;;8.94;100.00;99786.78;5048476;28;20200;-77
2024/01/01 11:13:08;;;;;;;13.67;9.83;;;;;;;8.96;100.00;99785.06;5057704;28;20210;-76
2024/01/01 11:15:39;;;;;;;16.47;11.07;;;;;;;8.95;100.00;99775.59;5055934;28;20659;-77
2024/01/01 11:18:14;;;;;;;15.70;8.93;;;;;;;9.00;100.00;99779.84;5054732;28;20254;-77
2024/01/01 11:20:51;;;;;;;12.17;9.17;;;;;;;9.04;100.00;99785.81;5058292;28;20186;-77
2024/01/01 11:23:48;;;;;;;9.47;4.37;;;;;;;9.09;100.00;99778.88;5058226;28;20214;-77
2024/01/01 11:26:22;;;;;;;5.33;3.53;;;;;;;9.05;100.00;99778.94;5058059;28;20884;-77